Time;durP1;ratioP1;P1;durP2;ratioP2;P2;SDS_P1;SDS_P2;PMS_P1;PMS_P2;Temp;Humidity;BMP_temperature;BMP_pressure;BME280_temperature;BME280_humidity;BME280_pressure;Samples;Min_cycle;Max_cycle;Signal;HPM_P1;HPM_P2
2024/02/22 00:01:18;;;;;;;2.88;2.47;;;;;;;13.32;65.30;99853.59;4836226;29;124328;-70
2024/02/22 00:03:45;;;;;;;4.70;2.47;;;;;;;13.33;65.42;99849.94;4836251;29;124309;-70
2024/02/22 00:06:14;;;;;;;2.50;2.30;;;;;;;13.35;65.48;99853.34;4836765;29;113511;-70
2024/02/22 00:08:42;;;;;;;4.18;2.45;;;;;;;13.36;65.54;99849.75;4820453;29;113930;-69
2024/02/22 00:11:09;;;;;;;3.10;2.40;;;;;;;13.38;65.44;99847.81;4833321;29;124197;-69
2024/02/22 00:13:37;;;;;;;3.42;2.50;;;;;;;13.39;65.37;99844.22;4834934;29;123978;-69
2024/02/22 00:16:08;;;;;;;3.08;2.47;;;;;;;13.41;65.44;99836.97;4836782;29;114739;-69
2024/02/22 00:18:35;;;;;;;4.32;2.60;;;;;;;13.43;65.46;99835.03;4833319;29;113274;-69
2024/02/22 00:21:04;;;;;;;2.60;2.40;;;;;;;13.46;65.40;99835.78;4818247;29;124386;-69
2024/02/22 00:23:31;;;;;;;2.88;2.60;;;;;;;13.47;65.60;99837.47;4832746;29;123729;-69
2024/02/22 00:25:59;;;;;;;2.97;2.45;;;;;;;13.47;65.37;99832.13;4833636;29;114629;-70
2024/02/22 00:28:27;;;;;;;3.50;2.20;;;;;;;13.49;65.52;99827.59;4828558;29;115171;-69
2024/02/22 00:30:54;;;;;;;4.10;2.80;;;;;;;13.48;65.54;99815.22;4832975;29;124246;-69
2024/02/22 00:33:22;;;;;;;3.92;2.55;;;;;;;13.50;65.65;99818.63;4833620;29;124849;-69
2024/02/22 00:35:49;;;;;;;3.80;2.72;;;;;;;13.52;65.62;99806.06;4832656;29;114546;-69
2024/02/22 00:38:16;;;;;;;2.78;2.30;;;;;;;13.53;65.48;99800.63;4836168;29;112971;-69
2024/02/22 00:40:45;;;;;;;3.03;2.72;;;;;;;13.54;65.60;99798.81;4835775;29;98723;-69
2024/02/22 00:43:13;;;;;;;3.33;3.03;;;;;;;13.56;65.70;99796.88;4822139;29;124105;-70
2024/02/22 00:45:40;;;;;;;3.28;2.78;;;;;;;13.57;65.66;99787.94;4831334;29;113860;-70
2024/02/22 00:48:07;;;;;;;3.50;2.97;;;;;;;13.58;65.72;99784.31;4834559;29;114366;-70
2024/02/22 00:50:35;;;;;;;3.33;3.03;;;;;;;13.60;65.61;99788.56;4833871;29;124441;-70
2024/02/22 00:53:03;;;;;;;3.20;2.70;;;;;;;13.63;65.68;99784.81;4832417;29;123278;-70
2024/02/22 00:55:30;;;;;;;4.07;2.75;;;;;;;13.63;65.67;99783.00;4836114;29;113779;-70
2024/02/22 00:57:57;;;;;;;4.28;3.17;;;;;;;13.65;65.64;99774.91;4833303;29;113717;-70
2024/02/22 01:00:24;;;;;;;3.42;3.10;;;;;;;13.66;65.79;99776.63;4828196;29;123513;-70
2024/02/22 01:02:53;;;;;;;4.00;3.42;;;;;;;13.66;65.74;99771.28;4831415;29;122765;-70
2024/02/22 01:05:20;;;;;;;3.65;2.88;;;;;;;13.67;65.72;99767.66;4834861;29;114585;-70
2024/02/22 01:07:47;;;;;;;3.70;3.13;;;;;;;13.70;65.78;99767.44;4835897;29;114202;-70
2024/02/22 01:10:15;;;;;;;4.05;3.10;;;;;;;13.70;65.83;99751.47;4830003;29;124671;-70
2024/02/22 01:12:43;;;;;;;3.78;3.20;;;;;;;13.72;65.89;99748.69;4828824;29;124038;-70
2024/02/22 01:15:10;;;;;;;4.28;3.15;;;;;;;13.72;65.81;99744.22;4832427;29;114675;-70
2024/02/22 01:17:37;;;;;;;3.92;3.50;;;;;;;13.73;65.95;99751.25;4833838;29;114578;-70
2024/02/22 01:20:06;;;;;;;3.58;3.15;;;;;;;13.75;65.89;99737.81;4828099;29;124411;-70
2024/02/22 01:22:33;;;;;;;3.53;3.22;;;;;;;13.75;65.92;99733.34;4839359;29;124009;-70
2024/02/22 01:25:01;;;;;;;4.53;3.25;;;;;;;13.76;65.91;99735.03;4835676;29;114114;-70
2024/02/22 01:27:28;;;;;;;5.07;3.63;;;;;;;13.77;65.79;99736.75;4835724;29;114212;-70
2024/02/22 01:29:56;;;;;;;4.18;3.60;;;;;;;13.79;65.94;99734.81;4831194;29;124097;-70
2024/02/22 01:32:23;;;;;;;4.05;3.50;;;;;;;13.80;66.05;99731.16;4835661;29;123554;-70
2024/02/22 01:34:51;;;;;;;4.07;3.35;;;;;;;13.82;65.86;99729.25;4824518;29;114723;-71
2024/02/22 01:37:18;;;;;;;3.53;3.17;;;;;;;13.82;65.92;99729.25;4811265;29;113544;-70
2024/02/22 01:39:46;;;;;;;3.33;3.03;;;;;;;13.83;66.05;99720.28;4823238;29;124005;-70
2024/02/22 01:42:13;;;;;;;3.58;3.28;;;;;;;13.84;65.81;99718.47;4831511;29;123973;-71
2024/02/22 01:44:40;;;;;;;3.28;2.92;;;;;;;13.85;66.01;99728.16;4836224;29;114607;-71
2024/02/22 01:47:07;;;;;;;3.40;3.08;;;;;;;13.85;66.06;99714.03;4833252;29;114008;-70
2024/02/22 01:49:35;;;;;;;5.00;3.08;;;;;;;13.85;66.10;99716.69;4834434;29;124513;-71
2024/02/22 01:52:06;;;;;;;3.28;2.92;;;;;;;13.86;66.26;99707.72;4834525;29;123990;-71
2024/02/22 01:54:34;;;;;;;4.25;3.30;;;;;;;13.87;65.94;99704.09;4816144;29;113751;-70
2024/02/22 01:57:03;;;;;;;3.33;3.03;;;;;;;13.89;66.16;99707.50;4834130;29;114733;-70
2024/02/22 01:59:31;;;;;;;4.88;3.08;;;;;;;13.90;66.14;99698.53;4832350;29;123107;-70
2024/02/22 02:02:04;;;;;;;3.70;2.88;;;;;;;13.90;66.21;99698.53;4825870;29;123702;-70
2024/02/22 02:04:35;;;;;;;4.80;2.90;;;;;;;13.92;66.13;99701.91;4833090;29;116154;-70
2024/02/22 02:07:02;;;;;;;3.28;2.85;;;;;;;13.93;66.04;99698.28;4844910;28;113930;-71
2024/02/22 02:09:30;;;;;;;2.92;2.63;;;;;;;13.94;66.10;99690.19;4834305;29;125222;-70
2024/02/22 02:11:58;;;;;;;4.15;2.83;;;;;;;13.95;66.11;99681.22;4831589;29;124008;-71
2024/02/22 02:14:26;;;;;;;3.83;2.90;;;;;;;13.96;66.15;99687.41;4833899;29;114881;-70
2024/02/22 02:16:53;;;;;;;4.32;2.97;;;;;;;13.97;66.24;99678.44;4827480;29;113877;-70
2024/02/22 02:19:25;;;;;;;3.30;2.80;;;;;;;13.98;66.21;99674.84;4838077;29;124990;-71
2024/02/22 02:22:31;;;;;;;4.30;3.33;;;;;;;13.99;66.22;99671.19;4834176;29;123863;-70
2024/02/22 02:25:01;;;;;;;4.93;3.53;;;;;;;14.00;66.17;99662.25;4830612;29;114534;-71
2024/02/22 02:27:29;;;;;;;3.80;3.30;;;;;;;14.02;66.16;99660.31;4830444;29;114252;-70
2024/02/22 02:29:58;;;;;;;3.97;3.17;;;;;;;14.03;66.31;99656.66;4834998;29;124155;-70
2024/02/22 02:32:25;;;;;;;4.10;3.60;;;;;;;14.05;66.20;99659.22;4835289;29;124469;-77
2024/02/22 02:34:52;;;;;;;4.72;3.33;;;;;;;14.06;66.20;99661.75;4830485;29;114021;-76
2024/02/22 02:37:20;;;;;;;3.83;3.25;;;;;;;14.07;66.43;99652.81;4827135;29;113799;-77
2024/02/22 02:39:48;;;;;;;4.13;3.50;;;;;;;14.10;66.29;99647.22;4836974;29;124116;-77
2024/02/22 02:42:17;;;;;;;6.35;3.70;;;;;;;14.11;66.33;99638.28;4829504;29;124095;-77
2024/02/22 02:44:45;;;;;;;4.75;3.42;;;;;;;14.12;66.29;99634.66;4827788;29;113931;-78
2024/02/22 02:47:12;;;;;;;4.70;3.63;;;;;;;14.13;66.30;99641.69;4837334;29;113924;-77
2024/02/22 02:49:40;;;;;;;5.35;3.70;;;;;;;14.13;66.43;99639.00;4837020;29;124641;-77
2024/02/22 02:52:08;;;;;;;4.35;3.67;;;;;;;14.14;66.23;99637.19;4844246;29;123795;-78
2024/02/22 02:54:36;;;;;;;4.60;3.70;;;;;;;14.15;66.27;99633.56;4819152;29;114974;-76
2024/02/22 02:57:03;;;;;;;5.35;3.88;;;;;;;14.15;66.12;99637.06;4837454;29;114998;-77
2024/02/22 02:59:31;;;;;;;4.50;3.70;;;;;;;14.17;66.26;99629.81;4826063;29;124347;-77
2024/02/22 03:01:58;;;;;;;4.75;3.80;;;;;;;14.19;66.35;99633.19;4831282;29;124426;-76
2024/02/22 03:04:25;;;;;;;5.28;3.92;;;;;;;14.21;66.17;99631.25;4836113;29;113352;-76
2024/02/22 03:06:53;;;;;;;5.20;3.65;;;;;;;14.24;66.38;99631.97;4833869;29;113998;-76
2024/02/22 03:09:20;;;;;;;4.47;3.90;;;;;;;14.26;66.24;99630.03;4818815;29;123473;-76
2024/02/22 03:11:47;;;;;;;5.70;3.83;;;;;;;14.26;66.38;99625.56;4852034;29;123450;-75
2024/02/22 03:14:15;;;;;;;4.55;3.75;;;;;;;14.28;66.32;99622.75;4838908;29;115004;-77
2024/02/22 03:16:42;;;;;;;5.80;4.15;;;;;;;14.27;66.35;99631.75;4837018;29;114816;-76
2024/02/22 03:19:10;;;;;;;5.90;4.43;;;;;;;14.28;66.37;99622.75;4834899;29;124041;-76
2024/02/22 03:21:37;;;;;;;7.13;4.18;;;;;;;14.29;66.13;99624.47;4836808;29;123730;-76
2024/02/22 03:24:05;;;;;;;5.90;4.30;;;;;;;14.30;66.43;99620.84;4823603;29;113816;-75
2024/02/22 03:26:32;;;;;;;6.05;4.18;;;;;;;14.31;66.13;99627.84;4836928;29;113437;-77
2024/02/22 03:29:00;;;;;;;6.50;4.40;;;;;;;14.31;66.33;99611.88;4824309;29;124171;-78
2024/02/22 03:31:28;;;;;;;5.57;4.15;;;;;;;14.31;66.18;99619.88;4834406;29;123988;-76
2024/02/22 03:33:56;;;;;;;7.95;4.43;;;;;;;14.33;66.34;99609.94;4844883;28;113457;-76
2024/02/22 03:36:23;;;;;;;6.50;4.43;;;;;;;14.33;66.15;99604.59;4838351;29;114468;-76
2024/02/22 03:38:53;;;;;;;8.05;4.88;;;;;;;14.35;66.21;99608.00;4837065;29;124888;-76
2024/02/22 03:41:24;;;;;;;6.85;4.88;;;;;;;14.36;66.48;99599.03;4835287;29;124008;-77
2024/02/22 03:43:51;;;;;;;7.80;5.03;;;;;;;14.36;66.14;99599.03;4827991;29;115286;-76
2024/02/22 03:46:19;;;;;;;8.55;4.88;;;;;;;14.37;66.17;99595.38;4834045;29;115274;-76
2024/02/22 03:48:47;;;;;;;7.07;5.07;;;;;;;14.38;66.25;99586.44;4829357;29;122988;-77
2024/02/22 03:51:14;;;;;;;7.28;5.00;;;;;;;14.38;66.21;99586.44;4829275;29;123975;-77
2024/02/22 03:53:42;;;;;;;7.75;5.53;;;;;;;14.39;66.09;99593.44;4833682;29;114153;-77
2024/02/22 03:56:09;;;;;;;8.60;5.38;;;;;;;14.40;66.18;99579.16;4832464;29;113076;-77
2024/02/22 03:58:37;;;;;;;7.78;5.53;;;;;;;14.40;66.02;99579.16;4834923;29;124683;-77
2024/02/22 04:01:07;;;;;;;11.25;6.07;;;;;;;14.39;66.16;99567.69;4834099;29;124180;-77
2024/02/22 04:03:34;;;;;;;9.02;5.90;;;;;;;14.40;66.04;99565.84;4836520;29;114138;-77
2024/02/22 04:06:03;;;;;;;9.57;5.65;;;;;;;14.41;66.07;99555.06;4835921;29;114310;-77
2024/02/22 04:08:30;;;;;;;11.15;5.55;;;;;;;14.42;66.10;99547.94;4836032;29;124978;-78
2024/02/22 04:10:58;;;;;;;11.05;5.78;;;;;;;14.42;66.22;99550.59;4835941;29;124296;-78
2024/02/22 04:13:25;;;;;;;9.77;5.70;;;;;;;14.43;66.04;99552.28;4836882;29;113671;-79
2024/02/22 04:15:52;;;;;;;10.35;5.30;;;;;;;14.43;65.97;99552.28;4836076;29;113968;-78
2024/02/22 04:18:20;;;;;;;10.88;5.53;;;;;;;14.43;65.94;99552.28;4831719;29;124295;-78
2024/02/22 04:20:47;;;;;;;12.38;5.50;;;;;;;14.42;65.90;99553.25;4835919;29;124303;-79
2024/02/22 04:23:14;;;;;;;12.73;5.20;;;;;;;14.41;65.93;99549.75;4832709;29;114099;-78
2024/02/22 04:25:42;;;;;;;11.93;5.35;;;;;;;14.41;66.02;99543.59;4839155;29;113284;-78
2024/02/22 04:28:10;;;;;;;11.57;5.43;;;;;;;14.40;66.06;99531.22;4832002;29;124089;-78
2024/02/22 04:30:40;;;;;;;13.93;5.55;;;;;;;14.40;66.09;99526.72;4848052;29;123224;-77
2024/02/22 04:33:07;;;;;;;13.82;5.15;;;;;;;14.40;65.92;99525.91;4835050;29;114572;-76
2024/02/22 04:35:36;;;;;;;9.13;4.88;;;;;;;14.41;65.96;99527.59;4852366;28;114220;-77
2024/02/22 04:38:03;;;;;;;9.55;5.13;;;;;;;14.43;65.99;99530.97;4834069;29;124203;-77
2024/02/22 04:40:32;;;;;;;8.18;5.13;;;;;;;14.42;65.86;99521.28;4835643;29;123938;-76
2024/02/22 04:42:59;;;;;;;10.82;5.05;;;;;;;14.42;65.90;99529.28;4827461;29;114325;-76
2024/02/22 04:45:27;;;;;;;9.73;5.35;;;;;;;14.41;65.73;99532.94;4834661;29;113358;-77
2024/02/22 04:47:57;;;;;;;10.13;5.15;;;;;;;14.41;65.93;99524.94;4832492;29;124227;-76
2024/02/22 04:50:27;;;;;;;12.00;5.00;;;;;;;14.41;65.80;99530.25;4836216;29;122982;-77
2024/02/22 04:52:55;;;;;;;9.68;4.95;;;;;;;14.39;65.77;99519.72;4832703;29;113706;-76
2024/02/22 04:55:23;;;;;;;11.68;4.88;;;;;;;14.40;65.71;99525.91;4834468;29;114174;-77
2024/02/22 04:57:50;;;;;;;9.43;4.57;;;;;;;14.39;65.84;99524.19;4829295;29;123586;-77
2024/02/22 05:00:18;;;;;;;9.40;4.55;;;;;;;14.38;65.79;99510.03;4829272;29;124053;-77
2024/02/22 05:02:45;;;;;;;10.02;4.80;;;;;;;14.37;65.72;99510.16;4827052;29;115003;-76
2024/02/22 05:05:13;;;;;;;9.07;5.03;;;;;;;14.36;65.88;99517.31;4833403;29;114366;-77
2024/02/22 05:07:40;;;;;;;10.98;4.35;;;;;;;14.34;65.68;99507.75;4833897;29;123320;-77
2024/02/22 05:10:08;;;;;;;12.30;4.60;;;;;;;14.33;65.72;99503.41;4832981;29;123187;-77
2024/02/22 05:12:36;;;;;;;11.88;4.63;;;;;;;14.32;65.66;99496.41;4832556;29;114329;-77
2024/02/22 05:15:04;;;;;;;9.50;4.03;;;;;;;14.33;65.88;99498.06;4835719;29;114747;-77
2024/02/22 05:17:33;;;;;;;11.23;4.03;;;;;;;14.31;65.83;99490.19;4836121;29;124265;-77
2024/02/22 05:20:00;;;;;;;9.35;3.75;;;;;;;14.31;65.82;99490.19;4835186;29;124200;-78
2024/02/22 05:22:29;;;;;;;13.38;4.90;;;;;;;14.29;65.73;99485.97;4834075;29;115677;-78
2024/02/22 05:24:56;;;;;;;12.00;3.90;;;;;;;14.28;65.71;99481.63;4834408;29;115269;-78
2024/02/22 05:27:24;;;;;;;7.57;3.63;;;;;;;14.26;65.73;99475.56;4820968;29;123696;-78
2024/02/22 05:29:51;;;;;;;8.52;3.25;;;;;;;14.25;65.80;99473.91;4834910;29;124388;-78
2024/02/22 05:32:18;;;;;;;8.20;3.75;;;;;;;14.23;65.64;99470.53;4836768;29;114360;-79
2024/02/22 05:34:46;;;;;;;9.88;3.90;;;;;;;14.20;65.63;99475.13;4837304;29;113971;-78
2024/02/22 05:37:13;;;;;;;11.93;3.75;;;;;;;14.19;65.58;99470.75;4836458;29;123019;-79
2024/02/22 05:39:40;;;;;;;9.90;3.80;;;;;;;14.17;65.63;99467.38;4836890;29;122919;-78
2024/02/22 05:42:08;;;;;;;12.98;4.30;;;;;;;14.14;65.63;99467.63;4834560;29;114557;-77
2024/02/22 05:44:35;;;;;;;8.13;4.15;;;;;;;14.13;65.41;99473.94;4835801;29;114360;-78
2024/02/22 05:47:03;;;;;;;6.15;3.92;;;;;;;14.10;65.52;99476.84;4834775;29;123920;-78
2024/02/22 05:49:31;;;;;;;9.20;4.13;;;;;;;14.07;65.49;99466.44;4832513;29;123840;-77
2024/02/22 05:51:59;;;;;;;9.60;4.28;;;;;;;14.06;65.70;99470.06;4840127;29;114209;-77
2024/02/22 05:54:26;;;;;;;8.40;4.18;;;;;;;14.03;65.48;99462.31;4843089;29;114301;-77
2024/02/22 05:56:53;;;;;;;9.60;4.72;;;;;;;14.00;65.56;99459.94;4833440;29;124330;-77
2024/02/22 05:59:21;;;;;;;9.13;4.10;;;;;;;13.98;65.39;99456.56;4833344;29;123793;-77
2024/02/22 06:01:49;;;;;;;10.32;4.40;;;;;;;13.95;65.39;99449.66;4835207;29;114097;-78
2024/02/22 06:04:18;;;;;;;8.20;4.55;;;;;;;13.93;65.44;99448.09;4839381;29;114348;-77
2024/02/22 06:06:45;;;;;;;9.50;4.50;;;;;;;13.90;65.34;99448.31;4838755;29;124004;-77
2024/02/22 06:09:13;;;;;;;7.97;4.72;;;;;;;13.88;65.37;99444.94;4835444;29;124736;-78
2024/02/22 06:11:40;;;;;;;9.85;4.93;;;;;;;13.82;65.13;99433.84;4823181;29;113481;-77
2024/02/22 06:14:08;;;;;;;9.48;5.57;;;;;;;13.79;65.40;99431.44;4853169;29;114791;-77
2024/02/22 06:16:36;;;;;;;8.57;5.10;;;;;;;13.77;65.39;99421.91;4837486;29;124343;-77
2024/02/22 06:19:03;;;;;;;9.95;5.45;;;;;;;13.74;65.38;99428.28;4837059;29;124702;-77
2024/02/22 06:21:31;;;;;;;10.25;5.57;;;;;;;13.72;65.59;99419.59;4837906;29;114365;-78
2024/02/22 06:23:59;;;;;;;8.02;5.07;;;;;;;13.69;65.44;99398.53;4831517;29;112955;-77
2024/02/22 06:26:33;;;;;;;7.72;2.97;;;;;;;13.65;65.43;99397.09;4838451;29;124456;-77
2024/02/22 06:29:05;;;;;;;7.53;3.30;;;;;;;13.64;65.35;99395.44;4830629;29;123227;-76
2024/02/22 06:31:32;;;;;;;6.85;3.53;;;;;;;13.62;65.25;99397.38;4833811;29;114333;-76
2024/02/22 06:34:00;;;;;;;9.35;3.60;;;;;;;13.58;65.24;99383.47;4832069;29;113720;-76
2024/02/22 06:36:28;;;;;;;10.40;3.83;;;;;;;13.56;65.17;99393.41;4828814;29;123519;-76
2024/02/22 06:38:56;;;;;;;7.68;3.30;;;;;;;13.53;65.15;99387.47;4836944;29;123873;-76
2024/02/22 06:41:24;;;;;;;9.13;3.00;;;;;;;13.51;65.28;99386.75;4834604;29;114083;-76
2024/02/22 06:43:54;;;;;;;6.35;2.80;;;;;;;13.50;65.15;99387.72;4823798;29;114293;-76
2024/02/22 06:46:25;;;;;;;4.55;2.72;;;;;;;13.47;65.00;99393.25;4829498;29;124012;-76
2024/02/22 06:48:53;;;;;;;4.85;2.75;;;;;;;13.44;65.18;99397.88;4836190;29;123889;-76
2024/02/22 06:51:21;;;;;;;5.93;2.88;;;;;;;13.47;65.17;99403.91;4834303;29;114085;-76
2024/02/22 06:53:49;;;;;;;4.53;2.65;;;;;;;13.43;65.27;99393.53;4835594;29;114572;-77
2024/02/22 06:56:17;;;;;;;5.15;2.33;;;;;;;13.40;65.16;99399.09;4835861;29;124889;-76
2024/02/22 06:58:44;;;;;;;7.88;2.85;;;;;;;13.38;65.14;99389.56;4825772;29;123932;-77
2024/02/22 07:01:12;;;;;;;7.60;2.78;;;;;;;13.36;65.27;99384.34;4836739;29;115182;-76
2024/02/22 07:03:39;;;;;;;5.35;2.53;;;;;;;13.36;65.24;99387.00;4825574;29;115936;-76
2024/02/22 07:06:06;;;;;;;4.55;2.60;;;;;;;13.34;65.25;99373.00;4835727;29;124698;-76
2024/02/22 07:08:33;;;;;;;5.63;2.60;;;;;;;13.33;65.15;99355.34;4838241;29;123509;-76
2024/02/22 07:11:04;;;;;;;4.15;2.33;;;;;;;13.34;64.85;99350.88;4826796;29;114635;-76
2024/02/22 07:13:32;;;;;;;4.32;2.67;;;;;;;13.34;65.17;99356.19;4838936;29;114651;-76
2024/02/22 07:16:01;;;;;;;5.40;2.40;;;;;;;13.32;65.27;99348.34;4836228;29;124730;-76
2024/02/22 07:18:28;;;;;;;4.30;2.30;;;;;;;13.34;65.39;99346.41;4836391;29;123889;-77
2024/02/22 07:20:59;;;;;;;4.95;2.38;;;;;;;13.33;65.43;99347.34;4835790;29;114626;-77
2024/02/22 07:23:26;;;;;;;3.85;2.40;;;;;;;13.34;65.48;99335.75;4836278;29;113682;-78
2024/02/22 07:25:56;;;;;;;4.20;2.33;;;;;;;13.37;65.38;99335.53;4829593;29;124090;-78
2024/02/22 07:28:24;;;;;;;3.83;2.17;;;;;;;13.38;65.31;99337.19;4828822;29;124902;-78
2024/02/22 07:30:53;;;;;;;3.95;1.90;;;;;;;13.40;65.31;99335.25;4830431;29;114270;-78
2024/02/22 07:33:20;;;;;;;3.15;2.00;;;;;;;13.41;65.34;99318.34;4837629;29;113278;-78
2024/02/22 07:35:50;;;;;;;3.05;1.85;;;;;;;13.43;65.27;99307.59;4835878;29;124107;-78
2024/02/22 07:38:17;;;;;;;2.58;1.80;;;;;;;13.46;65.23;99306.47;4835500;29;124184;-78
2024/02/22 07:40:48;;;;;;;3.15;1.73;;;;;;;13.46;65.38;99298.50;4834503;29;114406;-79
2024/02/22 07:43:16;;;;;;;2.97;1.80;;;;;;;13.47;65.47;99303.69;4836118;29;113462;-77
2024/02/22 07:45:44;;;;;;;2.30;1.63;;;;;;;13.51;65.39;99304.31;4836435;29;124000;-78
2024/02/22 07:48:11;;;;;;;3.53;1.83;;;;;;;13.53;65.38;99302.34;4837780;29;124216;-78
2024/02/22 07:50:39;;;;;;;4.38;1.60;;;;;;;13.54;65.39;99299.56;4821775;29;115368;-78
2024/02/22 07:53:10;;;;;;;3.22;1.85;;;;;;;13.56;65.41;99307.41;4835593;29;115242;-78
2024/02/22 07:55:43;;;;;;;3.65;1.85;;;;;;;13.58;65.35;99300.13;4834442;29;125120;-78
2024/02/22 07:58:10;;;;;;;3.50;2.42;;;;;;;13.62;65.24;99306.94;4826077;29;123742;-79
2024/02/22 08:00:45;;;;;;;3.00;2.00;;;;;;;13.62;65.35;99281.16;4828502;29;113724;-79
2024/02/22 08:03:24;;;;;;;3.42;2.17;;;;;;;13.65;65.31;99279.22;4822606;29;113578;-78
2024/02/22 08:05:52;;;;;;;2.92;1.92;;;;;;;13.68;65.24;99285.13;4836409;29;124249;-77
2024/02/22 08:08:20;;;;;;;3.72;2.45;;;;;;;13.69;65.31;99292.13;4835707;29;123143;-77
2024/02/22 08:10:47;;;;;;;3.50;2.28;;;;;;;13.71;65.24;99273.38;4834930;29;114589;-77
2024/02/22 08:13:16;;;;;;;4.00;2.22;;;;;;;13.73;65.28;99266.97;4836776;29;114275;-78
2024/02/22 08:15:44;;;;;;;3.20;2.20;;;;;;;13.75;65.33;99270.34;4836848;29;124891;-78
2024/02/22 08:18:11;;;;;;;3.28;2.15;;;;;;;13.78;65.37;99254.09;4836452;29;124232;-78
2024/02/22 08:20:40;;;;;;;3.80;2.30;;;;;;;13.81;65.33;99232.56;4835299;29;113989;-78
2024/02/22 08:23:14;;;;;;;3.55;2.38;;;;;;;13.86;65.25;99228.66;4836215;29;114491;-77
2024/02/22 08:25:43;;;;;;;3.30;2.35;;;;;;;13.91;65.33;99221.16;4835142;29;123856;-78
2024/02/22 08:28:10;;;;;;;5.10;2.50;;;;;;;13.94;65.31;99207.59;4835491;29;124346;-78
2024/02/22 08:30:37;;;;;;;3.40;2.28;;;;;;;13.97;65.28;99204.66;4835214;29;115630;-78
2024/02/22 08:33:06;;;;;;;3.08;2.20;;;;;;;14.00;65.23;99193.75;4833978;29;113868;-78
2024/02/22 08:35:33;;;;;;;3.20;2.17;;;;;;;14.04;65.36;99184.50;4823301;29;123866;-79
2024/02/22 08:38:02;;;;;;;3.05;1.95;;;;;;;14.07;65.45;99188.72;4836323;29;123565;-80
2024/02/22 08:40:29;;;;;;;4.22;2.38;;;;;;;14.10;65.36;99183.97;4829200;29;114969;-80
2024/02/22 08:43:08;;;;;;;2.97;2.10;;;;;;;14.13;65.34;99183.72;4832502;29;114931;-79
2024/02/22 08:45:37;;;;;;;3.45;2.25;;;;;;;14.16;65.31;99159.47;4829501;29;124189;-80
2024/02/22 08:48:05;;;;;;;4.45;2.78;;;;;;;14.20;65.26;99152.94;4823392;29;123536;-82
2024/02/22 08:50:33;;;;;;;3.85;2.40;;;;;;;14.24;65.69;99150.84;4832985;29;114763;-79
2024/02/22 08:53:02;;;;;;;4.35;2.72;;;;;;;14.27;65.16;99136.41;4841531;29;113116;-79
2024/02/22 08:55:30;;;;;;;4.22;2.85;;;;;;;14.29;65.41;99145.94;4833880;29;124869;-80
2024/02/22 08:57:57;;;;;;;3.10;2.47;;;;;;;14.34;65.19;99142.88;4836063;29;124180;-81
2024/02/22 09:00:28;;;;;;;3.05;2.25;;;;;;;14.38;65.45;99138.97;4834799;29;114716;-79
2024/02/22 09:02:56;;;;;;;3.03;2.10;;;;;;;14.40;65.26;99131.69;4834087;29;114328;-79
2024/02/22 09:05:24;;;;;;;2.90;1.92;;;;;;;14.42;65.27;99127.06;4833490;29;123938;-79
2024/02/22 09:07:51;;;;;;;3.10;2.08;;;;;;;14.44;65.05;99122.44;4837092;29;123870;-78
2024/02/22 09:10:19;;;;;;;3.58;2.15;;;;;;;14.45;65.07;99124.13;4828287;29;113539;-78
2024/02/22 09:12:47;;;;;;;5.10;1.50;;;;;;;14.47;65.10;99116.84;4831954;29;113888;-79
2024/02/22 09:15:14;;;;;;;2.28;1.70;;;;;;;14.48;65.17;99123.84;4835983;29;123730;-78
2024/02/22 09:17:42;;;;;;;2.40;1.90;;;;;;;14.50;65.05;99116.56;4836613;29;123655;-79
2024/02/22 09:20:09;;;;;;;3.55;1.67;;;;;;;14.51;65.23;99102.28;4836723;29;113847;-78
2024/02/22 09:22:41;;;;;;;3.83;1.90;;;;;;;14.52;65.06;99095.97;4830488;29;114127;-78
2024/02/22 09:25:10;;;;;;;2.30;1.83;;;;;;;14.53;65.11;99089.66;4833596;29;123658;-78
2024/02/22 09:27:39;;;;;;;1.95;1.45;;;;;;;14.53;65.18;99084.31;4838449;29;124245;-78
2024/02/22 09:30:06;;;;;;;2.20;1.63;;;;;;;14.54;65.09;99070.03;4836696;29;115015;-78
2024/02/22 09:32:35;;;;;;;1.95;1.70;;;;;;;14.54;65.14;99075.38;4836505;29;115426;-78
2024/02/22 09:35:03;;;;;;;1.92;1.50;;;;;;;14.55;64.96;99069.03;4847940;28;123926;-78
2024/02/22 09:37:32;;;;;;;1.70;1.50;;;;;;;14.55;64.98;99050.38;4830577;29;125037;-78
2024/02/22 09:39:59;;;;;;;2.05;1.58;;;;;;;14.55;65.01;99042.41;4834895;29;114964;-78
2024/02/22 09:42:27;;;;;;;2.30;1.58;;;;;;;14.55;65.02;99017.59;4848119;29;113601;-79
2024/02/22 09:44:56;;;;;;;1.75;1.27;;;;;;;14.55;65.09;99023.75;4835809;29;123784;-79
2024/02/22 09:47:24;;;;;;;2.05;1.30;;;;;;;14.55;65.14;99013.09;4831591;29;123653;-78
2024/02/22 09:49:53;;;;;;;1.40;1.00;;;;;;;14.57;65.00;98999.66;4825732;29;114649;-79
2024/02/22 09:52:21;;;;;;;1.80;1.33;;;;;;;14.57;64.99;98989.84;4834811;29;113722;-79
2024/02/22 09:54:49;;;;;;;3.45;1.23;;;;;;;14.58;64.98;98986.22;4829398;29;124776;-79
2024/02/22 09:57:17;;;;;;;2.00;1.17;;;;;;;14.60;65.24;98973.59;4836955;29;123318;-78
2024/02/22 09:59:51;;;;;;;1.20;1.00;;;;;;;14.63;65.16;98955.63;4829317;29;115093;-79
2024/02/22 10:02:19;;;;;;;1.52;1.17;;;;;;;14.67;65.11;98951.69;4830181;29;113560;-79
2024/02/22 10:04:51;;;;;;;1.75;1.33;;;;;;;14.70;65.01;98951.44;4839045;29;123503;-79
2024/02/22 10:07:28;;;;;;;1.50;1.10;;;;;;;14.75;65.15;98943.84;4836638;29;123811;-79
2024/02/22 10:09:56;;;;;;;3.70;1.10;;;;;;;14.79;65.24;98934.59;4829229;29;114452;-80
2024/02/22 10:12:32;;;;;;;1.90;1.17;;;;;;;14.82;65.25;98923.63;4834827;29;113950;-79
2024/02/22 10:15:08;;;;;;;1.65;1.10;;;;;;;14.88;65.16;98923.06;4823502;29;123934;-79
2024/02/22 10:17:37;;;;;;;;;;;;;;;14.89;65.27;98908.75;4830395;29;124049;-80
2024/02/22 10:20:09;;;;;;;2.65;1.38;;;;;;;14.93;64.98;98910.13;4836120;29;114295;-78
2024/02/22 10:22:38;;;;;;;1.80;1.40;;;;;;;14.96;65.05;98906.34;4833844;29;114815;-82
2024/02/22 10:25:12;;;;;;;1.95;1.20;;;;;;;15.00;65.26;98899.75;4838307;29;123477;-79
2024/02/22 10:27:47;;;;;;;1.85;1.10;;;;;;;15.07;65.17;98883.97;4830089;29;123915;-79
2024/02/22 10:30:17;;;;;;;2.03;1.20;;;;;;;15.13;65.32;98889.59;4830144;29;114365;-78
2024/02/22 10:32:47;;;;;;;0.98;0.80;;;;;;;15.21;65.21;98896.84;4849119;28;114025;-79
2024/02/22 10:35:15;;;;;;;1.55;1.02;;;;;;;15.27;65.16;98890.91;4839547;29;124881;-80
2024/02/22 10:37:44;;;;;;;1.27;0.98;;;;;;;15.32;65.15;98899.31;4829788;29;123987;-79
2024/02/22 10:40:12;;;;;;;1.63;0.93;;;;;;;15.37;64.96;98896.22;4838811;29;114564;-83
2024/02/22 10:42:41;;;;;;;1.60;1.13;;;;;;;15.38;65.05;98898.72;4829383;29;113704;-80
2024/02/22 10:45:09;;;;;;;1.88;0.93;;;;;;;15.41;64.90;98886.09;4835089;29;123625;-81
2024/02/22 10:47:37;;;;;;;1.60;0.90;;;;;;;15.43;65.08;98889.47;4832332;29;123618;-80
2024/02/22 10:50:06;;;;;;;1.55;0.98;;;;;;;15.46;65.03;98878.47;4830741;29;114041;-79
2024/02/22 10:52:46;;;;;;;1.35;1.17;;;;;;;15.50;64.96;98863.84;4828861;29;113912;-79
2024/02/22 10:55:15;;;;;;;1.80;1.10;;;;;;;15.51;64.70;98849.53;4838860;29;124115;-79
2024/02/22 10:57:50;;;;;;;1.60;0.90;;;;;;;15.53;64.89;98842.22;4838098;29;123145;-78
2024/02/22 11:00:17;;;;;;;0.98;0.80;;;;;;;15.56;64.65;98821.41;4837296;29;114458;-79
2024/02/22 11:02:45;;;;;;;2.35;0.80;;;;;;;15.60;64.97;98813.94;4835791;29;114214;-80
2024/02/22 11:05:13;;;;;;;1.48;1.05;;;;;;;15.63;64.69;98807.47;4831363;29;125081;-79
2024/02/22 11:07:50;;;;;;;0.93;0.80;;;;;;;15.67;64.75;98799.00;4838031;29;123943;-80
2024/02/22 11:10:19;;;;;;;1.30;0.80;;;;;;;15.71;64.92;98781.69;4836035;29;113580;-80
2024/02/22 11:12:48;;;;;;;0.98;0.75;;;;;;;15.74;64.59;98776.06;4833103;29;114997;-79
2024/02/22 11:15:16;;;;;;;1.20;0.80;;;;;;;15.79;64.70;98761.44;4837000;29;124521;-80
2024/02/22 11:17:53;;;;;;;1.13;0.82;;;;;;;15.81;64.72;98770.13;4837641;29;123568;-80
2024/02/22 11:20:34;;;;;;;1.98;0.70;;;;;;;15.83;64.74;98746.78;4837243;29;114247;-79
2024/02/22 11:23:12;;;;;;;1.52;0.98;;;;;;;15.82;64.65;98745.94;4830081;29;113112;-79
2024/02/22 11:25:42;;;;;;;1.17;0.80;;;;;;;15.84;64.62;98743.13;4834542;29;124523;-80
2024/02/22 11:28:10;;;;;;;1.20;0.77;;;;;;;15.85;64.65;98728.78;4834744;29;124364;-80
2024/02/22 11:30:44;;;;;;;2.40;0.80;;;;;;;15.87;64.58;98724.13;4836773;29;114233;-80